createdAt,value
2023-03-29T00:02:07.588Z,13.68
2023-03-29T00:04:34.561Z,14.50
2023-03-29T00:07:04.852Z,17.83
2023-03-29T00:09:33.519Z,14.95
2023-03-29T00:12:01.473Z,16.33
2023-03-29T00:14:30.829Z,16.15
2023-03-29T00:16:58.725Z,15.43
2023-03-29T00:19:26.000Z,14.90
2023-03-29T00:21:52.983Z,17.25
2023-03-29T00:24:21.542Z,14.23
2023-03-29T00:26:48.606Z,14.13
2023-03-29T00:29:15.480Z,14.50
2023-03-29T00:31:42.330Z,16.17
2023-03-29T00:34:09.187Z,14.13
2023-03-29T00:36:35.929Z,12.70
2023-03-29T00:39:02.709Z,14.98
2023-03-29T00:41:29.494Z,16.25
2023-03-29T00:43:58.120Z,15.68
2023-03-29T00:46:26.541Z,14.00
2023-03-29T00:48:56.758Z,15.38
2023-03-29T00:51:26.941Z,14.00
2023-03-29T00:53:58.074Z,15.00
2023-03-29T00:56:32.332Z,15.18
2023-03-29T00:59:09.692Z,13.82
2023-03-29T01:01:54.643Z,13.93
2023-03-29T01:04:43.580Z,14.30
2023-03-29T01:07:26.111Z,14.30
2023-03-29T01:10:04.366Z,15.37
2023-03-29T01:12:36.105Z,13.23
2023-03-29T01:15:10.151Z,12.68
2023-03-29T01:17:37.843Z,15.73
2023-03-29T01:20:43.462Z,16.77
2023-03-29T01:23:34.920Z,14.45
2023-03-29T01:26:04.640Z,14.43
2023-03-29T01:28:40.464Z,13.27
2023-03-29T01:31:12.000Z,15.15
2023-03-29T01:33:49.448Z,15.43
2023-03-29T01:36:27.207Z,14.40
2023-03-29T01:39:06.076Z,13.48
2023-03-29T01:42:14.679Z,16.02
2023-03-29T01:44:55.615Z,11.48
2023-03-29T01:47:32.008Z,11.90
2023-03-29T01:50:13.575Z,12.38
2023-03-29T01:52:49.930Z,13.13
2023-03-29T01:55:25.008Z,13.70
2023-03-29T01:57:54.258Z,14.38
2023-03-29T02:00:24.993Z,13.43
2023-03-29T02:02:55.208Z,12.75
2023-03-29T02:05:24.559Z,14.57
2023-03-29T02:07:52.992Z,12.40
2023-03-29T02:10:21.822Z,13.98
2023-03-29T02:12:49.047Z,13.88
2023-03-29T02:15:19.344Z,13.05
2023-03-29T02:17:47.944Z,16.35
2023-03-29T02:20:27.901Z,15.00
2023-03-29T02:23:02.218Z,14.60
2023-03-29T02:25:29.674Z,18.50
2023-03-29T02:27:57.253Z,16.60
2023-03-29T02:30:29.071Z,13.88
2023-03-29T02:33:03.745Z,12.82
2023-03-29T02:35:41.086Z,12.10
2023-03-29T02:38:11.499Z,13.73
2023-03-29T02:40:40.441Z,14.98
2023-03-29T02:43:08.446Z,14.00
2023-03-29T02:45:37.213Z,15.25
2023-03-29T02:48:08.541Z,14.45
2023-03-29T02:50:38.353Z,13.88
2023-03-29T02:53:14.888Z,14.25
2023-03-29T02:55:41.643Z,14.10
2023-03-29T02:58:08.916Z,15.57
2023-03-29T03:00:38.563Z,15.73
2023-03-29T03:03:07.986Z,13.32
2023-03-29T03:05:36.190Z,15.57
2023-03-29T03:08:02.990Z,15.85
2023-03-29T03:10:29.730Z,15.95
2023-03-29T03:12:56.658Z,13.38
2023-03-29T03:15:23.417Z,14.07
2023-03-29T03:17:50.173Z,14.63
2023-03-29T03:20:17.251Z,14.35
2023-03-29T03:22:48.991Z,13.68
2023-03-29T03:25:19.559Z,13.88
2023-03-29T03:27:46.824Z,14.98
2023-03-29T03:30:13.962Z,15.52
2023-03-29T03:32:41.581Z,15.07
2023-03-29T03:35:08.902Z,14.82
2023-03-29T03:37:35.889Z,15.90
2023-03-29T03:40:08.941Z,15.15
2023-03-29T03:42:35.873Z,14.10
2023-03-29T03:45:02.609Z,13.43
2023-03-29T03:47:29.448Z,14.45
2023-03-29T03:49:56.444Z,13.68
2023-03-29T03:52:23.381Z,12.90
2023-03-29T03:54:50.378Z,12.95
2023-03-29T03:57:17.548Z,11.70
2023-03-29T03:59:44.862Z,13.40
2023-03-29T04:02:11.590Z,13.20
2023-03-29T04:04:39.520Z,14.43
2023-03-29T04:07:06.497Z,13.38
2023-03-29T04:09:34.456Z,14.57
2023-03-29T04:12:04.370Z,15.40
2023-03-29T04:14:32.564Z,15.13
2023-03-29T04:16:59.304Z,13.82
2023-03-29T04:19:26.322Z,14.30
2023-03-29T04:21:53.030Z,13.25
2023-03-29T04:24:19.753Z,17.05
2023-03-29T04:26:48.637Z,13.48
2023-03-29T04:29:15.344Z,15.00
2023-03-29T04:31:42.061Z,15.30
2023-03-29T04:34:08.787Z,14.65
2023-03-29T04:36:35.643Z,15.82
2023-03-29T04:39:02.339Z,14.35
2023-03-29T04:41:29.187Z,14.05
2023-03-29T04:43:56.294Z,12.02
2023-03-29T04:46:26.768Z,13.27
2023-03-29T04:48:54.314Z,12.23
2023-03-29T04:51:22.413Z,11.20
2023-03-29T04:53:50.470Z,12.63
2023-03-29T04:56:17.456Z,16.63
2023-03-29T04:58:44.715Z,20.02
2023-03-29T05:01:11.563Z,14.43
2023-03-29T05:03:38.680Z,15.38
2023-03-29T05:06:09.914Z,16.80
2023-03-29T05:08:40.459Z,15.23
2023-03-29T05:11:11.708Z,14.35
2023-03-29T05:13:38.531Z,12.68
2023-03-29T05:16:06.999Z,11.93
2023-03-29T05:18:33.871Z,14.00
2023-03-29T05:21:00.995Z,14.93
2023-03-29T05:23:28.906Z,14.77
2023-03-29T05:25:55.601Z,12.57
2023-03-29T05:28:22.507Z,13.05
2023-03-29T05:31:00.295Z,13.40
2023-03-29T05:33:27.758Z,10.32
2023-03-29T05:36:06.737Z,11.68
2023-03-29T05:38:34.073Z,14.52
2023-03-29T05:41:01.788Z,14.57
2023-03-29T05:43:31.747Z,13.73
2023-03-29T05:45:58.735Z,13.52
2023-03-29T05:48:27.362Z,12.57
2023-03-29T05:50:55.686Z,15.30
2023-03-29T05:53:24.300Z,15.52
2023-03-29T05:55:51.658Z,14.05
2023-03-29T05:58:19.208Z,13.45
2023-03-29T06:00:46.512Z,13.70
2023-03-29T06:03:21.184Z,12.73
2023-03-29T06:05:57.115Z,15.15
2023-03-29T06:08:23.878Z,14.52
2023-03-29T06:10:50.589Z,16.27
2023-03-29T06:13:18.906Z,15.70
2023-03-29T06:15:46.130Z,18.02
2023-03-29T06:18:12.905Z,16.40
2023-03-29T06:20:39.623Z,18.88
2023-03-29T06:23:06.334Z,20.27
2023-03-29T06:25:34.235Z,20.30
2023-03-29T06:28:01.360Z,20.23
2023-03-29T06:30:28.480Z,19.38
2023-03-29T06:32:55.736Z,19.40
2023-03-29T06:35:22.659Z,16.80
2023-03-29T06:37:50.944Z,21.23
2023-03-29T06:40:19.293Z,15.70
2023-03-29T06:42:46.599Z,21.13
2023-03-29T06:45:14.199Z,17.38
2023-03-29T06:47:41.197Z,25.40
2023-03-29T06:50:08.829Z,22.23
2023-03-29T06:52:35.558Z,16.48
2023-03-29T06:55:02.711Z,19.10
2023-03-29T06:57:29.405Z,21.38
2023-03-29T06:59:56.165Z,22.38
2023-03-29T07:02:22.867Z,21.98
2023-03-29T07:04:49.620Z,21.02
2023-03-29T07:07:22.646Z,24.10
2023-03-29T07:09:55.522Z,32.25
2023-03-29T07:12:23.154Z,28.98
2023-03-29T07:14:50.111Z,30.88
2023-03-29T07:17:16.874Z,29.65
2023-03-29T07:19:43.992Z,31.58
2023-03-29T07:22:11.357Z,24.48
2023-03-29T07:24:38.094Z,22.88
2023-03-29T07:27:05.124Z,18.67
2023-03-29T07:29:32.762Z,21.33
2023-03-29T07:31:59.557Z,25.17
2023-03-29T07:34:27.242Z,23.63
2023-03-29T07:36:54.711Z,29.23
2023-03-29T07:39:22.468Z,20.27
2023-03-29T07:41:49.270Z,32.05
2023-03-29T07:44:18.374Z,28.08
2023-03-29T07:46:45.109Z,27.17
2023-03-29T07:49:11.894Z,21.65
2023-03-29T07:51:38.633Z,21.02
2023-03-29T07:54:06.524Z,25.40
2023-03-29T07:56:33.194Z,27.67
2023-03-29T07:58:59.939Z,20.17
2023-03-29T08:01:26.598Z,21.38
2023-03-29T08:03:53.447Z,16.42
2023-03-29T08:06:20.198Z,18.42
2023-03-29T08:08:47.528Z,18.05
2023-03-29T08:11:14.240Z,18.60
2023-03-29T08:13:41.061Z,19.08
2023-03-29T08:16:08.925Z,22.35
2023-03-29T08:18:35.749Z,24.42
2023-03-29T08:21:02.815Z,23.10
2023-03-29T08:23:29.849Z,20.77
2023-03-29T08:25:56.527Z,19.23
2023-03-29T08:28:23.394Z,19.45
2023-03-29T08:30:50.520Z,24.13
2023-03-29T08:33:17.346Z,16.02
2023-03-29T08:35:44.134Z,20.48
2023-03-29T08:38:11.257Z,22.98
2023-03-29T08:40:38.112Z,22.70
2023-03-29T08:43:24.046Z,16.50
2023-03-29T08:46:09.514Z,14.75
2023-03-29T08:48:44.212Z,18.25
2023-03-29T08:51:31.493Z,18.35
2023-03-29T08:54:40.185Z,19.27
2023-03-29T08:57:37.620Z,19.67
2023-03-29T09:00:07.138Z,15.00
2023-03-29T09:02:36.256Z,18.42
2023-03-29T09:05:28.156Z,14.13
2023-03-29T09:07:54.927Z,17.98
2023-03-29T09:10:31.644Z,17.58
2023-03-29T09:13:27.069Z,11.20
2023-03-29T09:16:30.654Z,12.68
2023-03-29T09:19:20.285Z,11.27
2023-03-29T09:22:08.656Z,13.63
2023-03-29T09:24:38.842Z,15.15
2023-03-29T09:27:27.378Z,11.75
2023-03-29T09:30:13.003Z,20.70
2023-03-29T09:32:44.348Z,13.93
2023-03-29T09:35:21.561Z,20.95
2023-03-29T09:37:51.525Z,18.52
2023-03-29T09:40:24.742Z,18.33
2023-03-29T09:45:19.605Z,14.57
2023-03-29T09:47:51.922Z,16.15
2023-03-29T09:50:32.030Z,16.13
2023-03-29T09:52:59.388Z,21.02
2023-03-29T09:55:29.468Z,18.40
2023-03-29T09:58:00.784Z,22.60
2023-03-29T10:00:28.087Z,14.45
2023-03-29T10:02:57.929Z,20.08
2023-03-29T10:05:26.407Z,16.42
2023-03-29T10:07:57.768Z,18.10
2023-03-29T10:10:32.634Z,18.65
2023-03-29T10:13:12.346Z,18.17
2023-03-29T10:15:39.068Z,12.40
2023-03-29T10:18:12.793Z,20.73
2023-03-29T10:20:40.480Z,13.15
2023-03-29T10:23:08.930Z,20.73
2023-03-29T10:25:42.956Z,18.88
2023-03-29T10:28:21.278Z,18.13
2023-03-29T10:30:55.328Z,17.83
2023-03-29T10:33:24.372Z,18.88
2023-03-29T10:35:51.778Z,21.20
2023-03-29T10:38:20.928Z,21.17
2023-03-29T10:40:56.046Z,18.40
2023-03-29T10:43:27.058Z,19.95
2023-03-29T10:46:06.821Z,22.58
2023-03-29T10:48:35.342Z,24.98
2023-03-29T10:51:06.149Z,20.67
2023-03-29T10:53:35.200Z,25.73
2023-03-29T10:56:08.307Z,25.98
2023-03-29T10:59:04.364Z,19.70
2023-03-29T11:01:54.965Z,27.52
2023-03-29T11:04:40.085Z,22.63
2023-03-29T11:07:22.814Z,30.70
2023-03-29T11:10:11.259Z,27.70
2023-03-29T11:12:46.985Z,21.15
2023-03-29T11:15:28.340Z,21.10
2023-03-29T11:18:13.879Z,23.55
2023-03-29T11:21:00.983Z,23.30
2023-03-29T11:24:05.451Z,23.80
2023-03-29T11:26:43.251Z,27.55
2023-03-29T11:29:18.782Z,18.00
2023-03-29T11:32:00.654Z,23.65
2023-03-29T11:34:40.800Z,27.55
2023-03-29T11:37:22.328Z,24.05
2023-03-29T11:40:10.731Z,22.05
2023-03-29T11:42:43.431Z,24.52
2023-03-29T11:45:17.790Z,24.58
2023-03-29T11:47:47.620Z,29.65
2023-03-29T11:50:20.439Z,21.92
2023-03-29T11:52:56.690Z,20.48
2023-03-29T11:55:30.652Z,21.98
2023-03-29T11:58:16.789Z,22.35
2023-03-29T12:00:46.385Z,24.77
2023-03-29T12:03:39.446Z,19.60
2023-03-29T12:06:36.104Z,25.20
2023-03-29T12:09:12.804Z,19.15
2023-03-29T12:11:50.497Z,17.33
2023-03-29T12:14:49.919Z,22.15
2023-03-29T12:17:21.238Z,17.50
2023-03-29T12:20:13.397Z,23.60
2023-03-29T12:22:40.668Z,20.70
2023-03-29T12:25:14.660Z,21.83
2023-03-29T12:28:42.887Z,13.50
2023-03-29T12:31:50.877Z,17.45
2023-03-29T12:34:26.617Z,18.90
2023-03-29T12:37:17.259Z,25.60
2023-03-29T12:39:44.476Z,22.58
2023-03-29T12:42:23.019Z,15.27
2023-03-29T12:44:57.191Z,12.93
2023-03-29T12:47:31.691Z,17.02
2023-03-29T12:50:00.518Z,12.98
2023-03-29T12:52:32.318Z,17.58
2023-03-29T12:55:03.108Z,22.40
2023-03-29T12:57:41.060Z,19.80
2023-03-29T13:00:13.296Z,15.57
2023-03-29T13:02:40.189Z,15.50
2023-03-29T13:05:29.396Z,13.93
2023-03-29T13:07:56.288Z,16.52
2023-03-29T13:10:37.017Z,18.08
2023-03-29T13:13:33.891Z,13.18
2023-03-29T13:16:18.822Z,15.48
2023-03-29T13:19:06.873Z,19.83
2023-03-29T13:21:55.391Z,14.65
2023-03-29T13:24:24.980Z,13.88
2023-03-29T13:27:10.430Z,14.35
2023-03-29T13:29:58.975Z,15.88
2023-03-29T13:32:34.036Z,16.33
2023-03-29T13:35:16.560Z,18.58
2023-03-29T13:37:57.868Z,25.33
2023-03-29T13:40:46.442Z,20.75
2023-03-29T13:43:22.672Z,22.83
2023-03-29T13:45:58.535Z,27.10
2023-03-29T13:48:27.497Z,33.55
2023-03-29T13:51:08.321Z,23.48
2023-03-29T13:53:51.836Z,26.90
2023-03-29T13:59:19.004Z,18.25
2023-03-29T14:01:58.029Z,22.27
2023-03-29T14:04:28.134Z,20.75
2023-03-29T14:06:56.879Z,15.20
2023-03-29T14:09:33.429Z,28.30
2023-03-29T14:12:01.515Z,27.75
2023-03-29T14:14:32.204Z,21.60
2023-03-29T14:17:02.010Z,32.42
2023-03-29T14:19:35.432Z,32.45
2023-03-29T14:24:40.476Z,29.05
2023-03-29T14:27:10.347Z,20.15
2023-03-29T14:29:37.170Z,19.83
2023-03-29T14:32:19.086Z,21.60
2023-03-29T14:34:50.650Z,30.88
2023-03-29T14:37:35.754Z,19.92
2023-03-29T14:40:02.495Z,16.15
2023-03-29T14:42:29.890Z,23.25
2023-03-29T14:45:05.539Z,22.58
2023-03-29T14:47:33.758Z,19.17
2023-03-29T14:50:01.880Z,19.13
2023-03-29T14:52:30.567Z,29.67
2023-03-29T14:55:01.059Z,20.88
2023-03-29T14:57:34.315Z,25.70
2023-03-29T15:02:53.944Z,19.85
2023-03-29T15:05:36.026Z,21.92
2023-03-29T15:08:04.362Z,23.00
2023-03-29T15:10:35.812Z,23.13
2023-03-29T15:13:04.611Z,22.48
2023-03-29T15:15:38.457Z,24.55
2023-03-29T15:18:07.747Z,29.75
2023-03-29T15:20:38.585Z,26.40
2023-03-29T15:23:14.541Z,28.40
2023-03-29T15:26:20.147Z,26.92
2023-03-29T15:28:49.804Z,26.35
2023-03-29T15:31:19.855Z,24.40
2023-03-29T15:33:47.131Z,31.45
2023-03-29T15:36:14.890Z,29.90
2023-03-29T15:38:45.100Z,31.13
2023-03-29T15:41:13.646Z,43.92
2023-03-29T15:43:41.496Z,25.23
2023-03-29T15:46:08.890Z,26.05
2023-03-29T15:48:35.830Z,25.27
2023-03-29T15:51:05.708Z,24.05
2023-03-29T15:53:33.462Z,26.02
2023-03-29T15:56:02.098Z,35.20
2023-03-29T15:58:34.357Z,33.03
2023-03-29T16:01:34.430Z,35.13
2023-03-29T16:04:11.300Z,53.45
2023-03-29T16:06:38.246Z,38.80
2023-03-29T16:09:07.182Z,45.22
2023-03-29T16:11:34.364Z,28.48
2023-03-29T16:14:01.290Z,33.15
2023-03-29T16:16:28.038Z,36.60
2023-03-29T16:18:54.776Z,30.23
2023-03-29T16:21:22.944Z,40.38
2023-03-29T16:23:50.131Z,36.60
2023-03-29T16:26:17.641Z,25.58
2023-03-29T16:28:44.386Z,32.72
2023-03-29T16:31:12.552Z,21.17
2023-03-29T16:33:41.110Z,37.92
2023-03-29T16:36:10.611Z,39.80
2023-03-29T16:38:37.657Z,34.35
2023-03-29T16:41:04.617Z,23.73
2023-03-29T16:43:31.717Z,38.70
2023-03-29T16:45:58.559Z,28.45
2023-03-29T16:48:25.385Z,31.88
2023-03-29T16:50:52.167Z,26.80
2023-03-29T16:53:20.043Z,32.03
2023-03-29T16:55:47.985Z,29.73
2023-03-29T16:58:15.548Z,28.35
2023-03-29T17:00:45.030Z,34.55
2023-03-29T17:03:13.283Z,32.08
2023-03-29T17:05:41.869Z,32.80
2023-03-29T17:08:10.303Z,25.42
2023-03-29T17:10:40.672Z,33.42
2023-03-29T17:13:08.227Z,42.97
2023-03-29T17:15:38.161Z,33.60
2023-03-29T17:18:06.584Z,32.05
2023-03-29T17:20:33.397Z,27.95
2023-03-29T17:23:00.145Z,25.30
2023-03-29T17:25:27.090Z,32.50
2023-03-29T17:27:54.197Z,40.88
2023-03-29T17:30:21.303Z,42.55
2023-03-29T17:32:48.421Z,39.90
2023-03-29T17:35:15.451Z,29.65
2023-03-29T17:37:42.731Z,32.65
2023-03-29T17:40:11.370Z,26.77
2023-03-29T17:42:38.163Z,36.55
2023-03-29T17:45:05.418Z,48.70
2023-03-29T17:47:32.086Z,36.53
2023-03-29T17:49:58.915Z,35.33
2023-03-29T17:52:26.304Z,34.97
2023-03-29T17:54:53.044Z,35.38
2023-03-29T17:57:19.879Z,33.42
2023-03-29T17:59:46.568Z,33.85
2023-03-29T18:02:24.566Z,33.15
2023-03-29T18:04:51.819Z,31.27
2023-03-29T18:07:18.716Z,31.10
2023-03-29T18:09:45.492Z,51.40
2023-03-29T18:12:12.530Z,36.35
2023-03-29T18:14:39.153Z,29.92
2023-03-29T18:17:06.056Z,31.45
2023-03-29T18:19:32.744Z,45.22
2023-03-29T18:21:59.459Z,29.23
2023-03-29T18:24:26.197Z,33.63
2023-03-29T18:26:52.956Z,30.75
2023-03-29T18:29:19.688Z,29.55
2023-03-29T18:31:46.461Z,35.00
2023-03-29T18:34:13.282Z,22.85
2023-03-29T18:36:39.972Z,25.42
2023-03-29T18:39:06.669Z,26.02
2023-03-29T18:41:35.683Z,24.85
2023-03-29T18:44:02.500Z,18.60
2023-03-29T18:46:31.355Z,24.50
2023-03-29T18:48:59.101Z,15.82
2023-03-29T18:51:28.107Z,13.38
2023-03-29T18:53:56.063Z,14.48
2023-03-29T18:56:23.323Z,27.45
2023-03-29T18:58:50.063Z,15.80
2023-03-29T19:01:16.789Z,21.92
2023-03-29T19:03:43.554Z,24.65
2023-03-29T19:06:11.853Z,32.42
2023-03-29T19:08:41.482Z,34.40
2023-03-29T19:11:10.709Z,24.38
2023-03-29T19:13:37.497Z,37.08
2023-03-29T19:16:04.900Z,23.70
2023-03-29T19:18:31.971Z,24.65
2023-03-29T19:20:58.632Z,27.85
2023-03-29T19:23:27.313Z,26.67
2023-03-29T19:26:05.785Z,37.85
2023-03-29T19:28:34.105Z,34.90
2023-03-29T19:31:02.461Z,33.42
2023-03-29T19:33:29.519Z,32.38
2023-03-29T19:35:56.431Z,33.20
2023-03-29T19:38:23.207Z,35.80
2023-03-29T19:40:51.581Z,34.50
2023-03-29T19:43:18.967Z,32.20
2023-03-29T19:45:47.981Z,23.33
2023-03-29T19:48:22.330Z,38.05
2023-03-29T19:50:50.534Z,26.02
2023-03-29T19:53:17.235Z,43.55
2023-03-29T19:55:45.452Z,33.28
2023-03-29T19:58:12.783Z,37.83
2023-03-29T20:00:39.602Z,31.20
2023-03-29T20:03:10.580Z,45.78
2023-03-29T20:05:38.935Z,31.77
2023-03-29T20:08:06.808Z,23.88
2023-03-29T20:10:34.694Z,24.48
2023-03-29T20:13:02.081Z,29.90
2023-03-29T20:15:28.850Z,23.05
2023-03-29T20:17:59.484Z,25.23
2023-03-29T20:20:28.623Z,25.02
2023-03-29T20:23:04.553Z,31.33
2023-03-29T20:25:32.784Z,29.65
2023-03-29T20:28:01.694Z,42.05
2023-03-29T20:30:28.615Z,37.40
2023-03-29T20:32:55.352Z,28.48
2023-03-29T20:35:22.201Z,27.60
2023-03-29T20:37:48.869Z,35.53
2023-03-29T20:40:15.802Z,30.63
2023-03-29T20:42:42.584Z,32.08
2023-03-29T20:45:18.535Z,23.30
2023-03-29T20:47:50.448Z,43.05
2023-03-29T20:50:20.308Z,27.98
2023-03-29T20:52:47.115Z,31.80
2023-03-29T20:55:16.797Z,27.23
2023-03-29T20:57:43.850Z,26.00
2023-03-29T21:00:12.299Z,24.92
2023-03-29T21:02:39.504Z,24.27
2023-03-29T21:05:06.937Z,28.88
2023-03-29T21:07:33.883Z,19.70
2023-03-29T21:10:01.255Z,25.67
2023-03-29T21:12:28.069Z,26.55
2023-03-29T21:14:55.327Z,31.42
2023-03-29T21:17:22.221Z,22.10
2023-03-29T21:19:49.105Z,18.75
2023-03-29T21:22:15.877Z,23.30
2023-03-29T21:24:42.622Z,19.35
2023-03-29T21:27:09.590Z,18.15
2023-03-29T21:29:36.262Z,18.88
2023-03-29T21:32:03.126Z,21.13
2023-03-29T21:34:29.845Z,14.15
2023-03-29T21:36:56.832Z,18.02
2023-03-29T21:39:26.234Z,19.58
2023-03-29T21:41:53.366Z,14.35
2023-03-29T21:44:20.449Z,14.85
2023-03-29T21:46:47.143Z,14.07
2023-03-29T21:49:13.929Z,18.65
2023-03-29T21:51:40.724Z,12.30
2023-03-29T21:54:07.492Z,20.67
2023-03-29T21:56:34.171Z,16.88
2023-03-29T21:59:00.937Z,14.65
2023-03-29T22:01:27.682Z,16.40
2023-03-29T22:03:54.400Z,17.38
2023-03-29T22:06:21.419Z,15.10
2023-03-29T22:08:50.345Z,17.52
2023-03-29T22:11:17.595Z,19.73
2023-03-29T22:13:45.064Z,18.92
2023-03-29T22:16:18.939Z,24.00
2023-03-29T22:18:49.362Z,21.60
2023-03-29T22:21:24.891Z,15.80
2023-03-29T22:23:56.162Z,24.08
2023-03-29T22:26:27.927Z,21.77
2023-03-29T22:28:59.316Z,15.23
2023-03-29T22:31:28.617Z,18.45
2023-03-29T22:33:55.880Z,19.17
2023-03-29T22:36:25.413Z,16.10
2023-03-29T22:38:53.012Z,27.08
2023-03-29T22:41:22.755Z,27.13
2023-03-29T22:43:52.381Z,23.40
2023-03-29T22:46:20.768Z,15.38
2023-03-29T22:48:47.981Z,23.40
2023-03-29T22:51:15.438Z,21.02
2023-03-29T22:53:42.491Z,25.75
2023-03-29T22:56:09.524Z,24.48
2023-03-29T22:58:37.368Z,21.48
2023-03-29T23:01:04.909Z,22.90
2023-03-29T23:03:32.195Z,15.23
2023-03-29T23:06:02.471Z,18.25
2023-03-29T23:08:31.381Z,20.52
2023-03-29T23:10:58.886Z,15.55
2023-03-29T23:13:29.480Z,13.43
2023-03-29T23:16:00.075Z,16.65
2023-03-29T23:18:28.835Z,16.55
2023-03-29T23:20:58.021Z,12.48
2023-03-29T23:23:27.351Z,18.30
2023-03-29T23:25:55.841Z,24.33
2023-03-29T23:28:27.357Z,13.82
2023-03-29T23:30:58.726Z,19.05
2023-03-29T23:33:26.191Z,16.70
2023-03-29T23:35:54.470Z,19.58
2023-03-29T23:38:21.430Z,21.20
2023-03-29T23:41:01.110Z,17.27
2023-03-29T23:43:33.031Z,17.02
2023-03-29T23:46:02.401Z,18.33
2023-03-29T23:48:30.216Z,16.50
2023-03-29T23:50:57.459Z,18.88
2023-03-29T23:53:25.721Z,16.08
2023-03-29T23:55:55.514Z,21.23
2023-03-29T23:58:22.378Z,22.65
